NCAR-RAP Real-Time Weather Data

Output produced by METARs form (08 May 2021  02:15 UTC)
found at http://weather.rap.ucar.edu/surface/
 
KTPH 080156Z AUTO 35016KT 10SM CLR 22/M09 A2990 RMK AO2 PK WND 36030/0127 SLP059 T02171094
KTPH 080056Z AUTO 33014G26KT 10SM CLR 23/M11 A2989 RMK AO2 PK WND 31027/0046 SLP059 T02331111
KTPH 072356Z AUTO 30021G27KT 10SM CLR 25/M12 A2989 RMK AO2 PK WND 30027/2356 SLP053 T02501122 10261 20217 56015
KTPH 072256Z AUTO 26010G19KT 10SM CLR 23/M12 A2990 RMK AO2 PK WND 27031/2200 SLP067 T02331117
KTPH 072156Z AUTO 30013G22KT 10SM CLR 26/M11 A2992 RMK AO2 WSHFT 2137 SLP070 T02611106
KTPH 072056Z AUTO 24011G27KT 10SM BKN110 24/M09 A2994 RMK AO2 PK WND 25027/2053 SLP085 T02391094 58011
KTPH 071956Z AUTO VRB04G22KT 10SM CLR 23/M06 A2997 RMK AO2 SLP090 T02331056
KTPH 071856Z AUTO 31009G17KT 270V340 10SM CLR 23/M05 A2997 RMK AO2 SLP088 T02331050
KTPH 071756Z AUTO 32014G21KT 10SM CLR 23/M06 A2998 RMK AO2 SLP091 T02281061 10228 20128 58006
KTPH 071656Z AUTO 35012G20KT 10SM CLR 21/M06 A3000 RMK AO2 SLP098 T02111056
KTPH 071556Z AUTO 33018G24KT 10SM CLR 19/M05 A3000 RMK AO2 SLP094 T01941050
KTPH 071456Z AUTO 34016KT 10SM CLR 18/M06 A3000 RMK AO2 SLP092 T01781056 53006
KTPH 071356Z AUTO 04006KT 10SM CLR 16/M06 A3000 RMK AO2 SLP088 T01561056